Latest Coastal Weather Observations for Cerberus

IDV60701

Issued at 1:25 pm EDT Thursday 23 October 2014 (issued every 10 minutes, with the page automatically refreshed every 10 minutes)

About coastal observations | Map of coastal stations | Coastal observations for VIC | Marine services | Other Formats
Station Details ID: 086361 Name: CERBERUS Lat: -38.36 Lon: 145.18 Height: 12.69 m
Data from the previous 72 hours. | See also: Recent months at Cerberus
Date/Time
EDT
Temp

°C
Wind Pressure Rain
since 9am
mm
Weather Cloud Vis
km
Sea
Height
m
Swell
Dir
 
Speed
knots
Gust
knots
hPa Trend Height
m
Period
s
Dir
23/01:00pm 16.7 ESE 6 9 1019.4 - 0.0 - - - - - - -
23/12:30pm 16.3 SSE 4 8 1019.7 - 0.0 - - - - - - -
23/12:00pm 15.5 SSE 3 4 1020.2 - 0.0 - - - - - - -
23/11:30am 14.9 ESE 3 5 1020.3 - 0.0 - - - - - - -
23/11:00am 15.0 SE 3 5 1020.6 - 0.0 - - - - - - -
23/10:30am 14.9 NNE 1 2 1020.8 - 0.0 - - - - - - -
23/10:00am 14.9 SSE 1 2 1020.6 - 0.0 - - - - - - -
23/09:30am 14.4 SSE 2 3 1020.5 - 0.0 - - - - - - -
23/09:00am 14.3 S 3 4 1020.4 - 0.0 - - - - - - -
23/08:30am 14.2 S 3 5 1020.5 - 0.0 - - - - - - -
23/08:00am 14.1 WSW 3 5 1020.4 - 0.0 - - - - - - -
23/07:30am 14.1 SSW 4 7 1020.4 - 0.0 - - - - - - -
23/07:00am 14.1 SSW 5 8 1019.9 - 0.0 - - - - - - -
23/06:30am 14.1 SSW 7 10 1019.6 - 0.0 - - - - - - -
23/06:00am 14.0 SSW 6 11 1019.0 - 0.0 - - - - - - -
23/05:30am 14.2 SSW 8 12 1018.7 - 0.0 - - - - - - -
23/05:00am 14.2 SSW 8 12 1018.4 - 0.0 - - - - - - -
23/04:30am 14.4 SSW 7 11 1018.2 - 0.0 - - - - - - -
23/04:00am 14.5 SW 8 13 1018.3 - 0.0 - - - - - - -
23/03:30am 14.2 WSW 4 6 1018.4 - 0.0 - - - - - - -
23/03:00am 13.9 WSW 4 5 1018.5 - 0.0 - - - - - - -
23/02:30am 14.0 WSW 3 5 1018.7 - 0.0 - - - - - - -
23/02:00am 14.4 W 4 7 1018.5 - 0.0 - - - - - - -
23/01:30am 14.8 WSW 6 9 1018.6 - 0.0 - - - - - - -
23/01:00am 15.1 W 8 11 1018.7 - 0.0 - - - - - - -
23/12:30am 15.7 NW 2 5 1017.7 - 0.0 - - - - - - -
23/12:00am 15.9 SE 4 9 1017.3 - 0.0 - - - - - - -
 
Date/Time
EDT
Temp

°C
Wind Pressure Rain
since 9am
mm
Weather Cloud Vis
km
Sea
Height
m
Swell
Dir
 
Speed
knots
Gust
knots
hPa Trend Height
m
Period
s
Dir
22/11:30pm 15.5 WSW 8 13 1018.4 - 0.0 - - - - - - -
22/11:00pm 15.6 WSW 5 8 1017.9 - 0.0 - - - - - - -
22/10:30pm 15.8 SW 8 12 1017.4 - 0.0 - - - - - - -
22/10:00pm 17.6 SW 10 14 1017.4 - 0.0 - - - - - - -
22/09:30pm 18.8 SSW 8 13 1016.8 - 0.0 - - - - - - -
22/09:00pm 20.1 SW 3 6 1016.7 - 0.0 - - - - - - -
22/08:30pm 19.6 SSW 2 4 1015.7 - 0.0 - - - - - - -
22/08:00pm 19.0 WSW 4 7 1015.3 - 0.0 - - - - - - -
22/07:30pm 18.5 SW 6 9 1015.3 - 0.0 - - - - - - -
22/07:00pm 19.5 WSW 7 9 1014.7 - 0.0 - - - - - - -
22/06:47pm 22.2 SSW 11 15 1014.4 - 0.0 - - - - - - -
22/06:30pm 27.8 WSW 3 4 1014.1 - 0.0 - - - - - - -
22/06:00pm 28.4 NE 3 5 1014.1 - 0.0 - - - - - - -
22/05:30pm 28.4 NE 2 5 1014.0 - 0.0 - - - - - - -
22/05:00pm 29.2 NE 3 6 1014.2 - 0.0 - - - - - - -
22/04:30pm 31.4 NE 2 7 1014.3 - 0.0 - - - - - - -
22/04:00pm 29.7 NNE 4 7 1014.6 - 0.0 - - - - - - -
22/03:30pm 30.3 NNW 6 10 1014.8 - 0.0 - - - - - - -
22/03:00pm 30.9 NNW 6 10 1015.2 - 0.0 - - - - - - -
22/02:30pm 30.5 NNW 6 10 1015.6 - 0.0 - - - - - - -
22/02:00pm 29.7 NNW 6 10 1015.9 - 0.0 - - - - - - -
22/01:30pm 29.0 N 7 12 1016.4 - 0.0 - - - - - - -
22/01:00pm 28.6 N 6 12 1016.8 - 0.0 - - - - - - -
22/12:30pm 27.3 NNW 8 13 1017.3 - 0.0 - - - - - - -
22/12:00pm 26.1 N 8 11 1017.8 - 0.0 - - - - - - -
22/11:30am 25.3 NW 10 13 1018.5 - 0.0 - - - - - - -
22/11:00am 24.6 N 2 5 1018.9 - 0.0 - - - - - - -
22/10:30am 22.6 NE 3 6 1019.0 - 0.0 - - - - - - -
22/10:00am 21.1 NE 3 6 1019.2 - 0.0 - - - - - - -
22/09:30am 20.1 ENE 4 5 1019.3 - 0.0 - - - - - - -
22/09:00am 19.0 NE 4 7 1019.2 - 0.0 - - - - - - -
22/08:30am 16.8 N 4 7 1019.1 - 0.0 - - - - - - -
22/08:00am 14.6 NNE 3 5 1019.4 - 0.0 - - - - - - -
22/07:30am 13.2 NNE 1 3 1019.4 - 0.0 - - - - - - -
22/07:00am 11.8 NNE 2 3 1019.5 - 0.0 - - - - - - -
22/06:30am 11.3 N 3 5 1019.6 - 0.0 - - - - - - -
22/06:00am 10.9 NNE 2 4 1019.6 - 0.0 - - - - - - -
22/05:30am 11.6 CALM 0 2 1019.6 - 0.0 - - - - - - -
22/05:00am 12.4 NNE 1 3 1019.5 - 0.0 - - - - - - -
22/04:30am 12.9 N 3 6 1019.5 - 0.0 - - - - - - -
22/04:00am 13.2 NNE 3 6 1019.8 - 0.0 - - - - - - -
22/03:30am 13.4 NNE 2 4 1020.2 - 0.0 - - - - - - -
22/03:00am 13.7 NNE 3 5 1020.4 - 0.0 - - - - - - -
22/02:30am 13.7 NE 3 6 1020.7 - 0.0 - - - - - - -
22/02:00am 13.8 NNE 3 5 1021.1 - 0.0 - - - - - - -
22/01:30am 14.1 NE 3 5 1021.5 - 0.0 - - - - - - -
22/01:00am 14.4 NE 4 7 1022.0 - 0.0 - - - - - - -
22/12:30am 14.7 NE 4 7 1022.4 - 0.0 - - - - - - -
22/12:00am 14.7 NE 3 5 1022.8 - 0.0 - - - - - - -
 
Date/Time
EDT
Temp

°C
Wind Pressure Rain
since 9am
mm
Weather Cloud Vis
km
Sea
Height
m
Swell
Dir
 
Speed
knots
Gust
knots
hPa Trend Height
m
Period
s
Dir
21/11:30pm 15.0 NE 3 6 1023.0 - 0.0 - - - - - - -
21/11:00pm 15.4 ENE 5 8 1023.4 - 0.0 - - - - - - -
21/10:30pm 15.6 NE 3 5 1023.5 - 0.0 - - - - - - -
21/10:00pm 16.1 NE 4 6 1023.8 - 0.0 - - - - - - -
21/09:30pm 16.6 NE 3 7 1023.8 - 0.0 - - - - - - -
21/09:00pm 17.3 NE 5 9 1023.5 - 0.0 - - - - - - -
21/08:30pm 17.5 ENE 4 7 1023.4 - 0.0 - - - - - - -
21/08:00pm 18.3 ENE 4 7 1023.3 - 0.0 - - - - - - -
21/07:30pm 18.9 E 3 6 1023.2 - 0.0 - - - - - - -
21/07:00pm 19.5 ESE 5 8 1023.1 - 0.0 - - - - - - -
21/06:30pm 20.2 ESE 7 12 1023.0 - 0.0 - - - - - - -
21/06:00pm 20.9 ESE 8 15 1023.1 - 0.0 - - - - - - -
21/05:30pm 21.7 ESE 8 13 1023.2 - 0.0 - - - - - - -
21/05:00pm 22.9 ESE 6 10 1023.1 - 0.0 - - - - - - -
21/04:30pm 23.2 ESE 6 10 1023.3 - 0.0 - - - - - - -
21/04:00pm 23.1 ESE 6 9 1023.8 - 0.0 - - - - - - -
21/03:30pm 22.9 ESE 6 8 1024.1 - 0.0 - - - - - - -
21/03:00pm 22.5 SE 6 9 1024.6 - 0.0 - - - - - - -
21/02:30pm 21.6 SE 5 8 1025.0 - 0.0 - - - - - - -
21/02:00pm 21.3 ESE 6 10 1025.6 - 0.0 - - - - - - -
21/01:30pm 21.4 NNE 5 9 1026.0 - 0.0 - - - - - - -
21/01:00pm 20.3 NNE 6 12 1026.5 - 0.0 - - - - - - -
21/12:30pm 19.5 NE 8 13 1026.7 - 0.0 - - - - - - -
21/12:00pm 19.6 NE 8 15 1026.9 - 0.0 - - - - - - -
21/11:30am 17.8 NE 10 16 1027.2 - 0.0 - - - - - - -
21/11:00am 18.0 NE 8 14 1027.6 - 0.0 - - - - - - -
21/10:30am 17.0 NE 8 14 1027.9 - 0.0 - - - - - - -
21/10:00am 16.6 NE 7 12 1028.0 - 0.0 - - - - - - -
21/09:30am 15.4 NE 7 14 1028.0 - 0.0 - - - - - - -
21/09:00am 14.2 NE 6 11 1028.1 - 0.0 - - - - - - -
21/08:30am 13.5 NE 5 9 1028.0 - 0.0 - - - - - - -
21/08:00am 12.7 NE 5 10 1027.8 - 0.0 - - - - - - -
21/07:30am 12.1 NE 4 7 1027.5 - 0.0 - - - - - - -
21/07:00am 10.8 ENE 4 7 1027.2 - 0.0 - - - - - - -
21/06:30am 9.9 NE 3 5 1026.9 - 0.0 - - - - - - -
21/06:00am 10.2 ENE 4 6 1026.7 - 0.0 - - - - - - -
21/05:30am 10.4 ENE 4 6 1026.6 - 0.0 - - - - - - -
21/05:00am 10.3 ENE 3 5 1026.7 - 0.0 - - - - - - -
21/04:30am 11.1 E 3 6 1026.6 - 0.0 - - - - - - -
21/04:00am 11.4 E 5 9 1026.6 - 0.0 - - - - - - -
21/03:30am 11.5 E 5 11 1026.9 - 0.0 - - - - - - -
21/03:00am 11.5 E 6 9 1027.1 - 0.0 - - - - - - -
21/02:30am 11.8 E 6 11 1027.3 - 0.0 - - - - - - -
21/02:00am 11.8 E 7 11 1027.6 - 0.0 - - - - - - -
21/01:30am 11.9 E 7 13 1028.0 - 0.0 - - - - - - -
21/01:00am 12.0 E 8 13 1028.6 - 0.0 - - - - - - -
21/12:30am 12.2 E 8 15 1028.7 - 0.0 - - - - - - -
21/12:00am 12.2 E 9 14 1028.9 - 0.0 - - - - - - -
 
Date/Time
EDT
Temp

°C
Wind Pressure Rain
since 9am
mm
Weather Cloud Vis
km
Sea
Height
m
Swell
Dir
 
Speed
knots
Gust
knots
hPa Trend Height
m
Period
s
Dir
20/11:30pm 12.1 E 8 12 1029.1 - 0.0 - - - - - - -
20/11:00pm 12.1 E 8 14 1029.2 - 0.0 - - - - - - -
20/10:30pm 12.3 ESE 9 14 1029.4 - 0.0 - - - - - - -
20/10:00pm 12.5 ESE 7 14 1029.6 - 0.0 - - - - - - -
20/09:30pm 12.7 E 8 14 1029.6 - 0.0 - - - - - - -
20/09:00pm 13.0 ESE 7 11 1029.4 - 0.0 - - - - - - -
20/08:30pm 13.4 ESE 9 15 1028.8 - 0.0 - - - - - - -
20/08:00pm 13.8 ESE 12 22 1028.5 - 0.0 - - - - - - -
20/07:30pm 14.3 SE 12 19 1028.3 - 0.0 - - - - - - -
20/07:00pm 15.2 ESE 12 19 1028.0 - 0.0 - - - - - - -
20/06:30pm 15.9 SE 12 20 1028.0 - 0.0 - - - - - - -
20/06:00pm 16.3 SE 13 21 1027.9 - 0.0 - - - - - - -
20/05:30pm 16.9 SE 11 21 1028.0 - 0.0 - - - - - - -
20/05:00pm 17.0 SE 12 19 1028.1 - 0.0 - - - - - - -
20/04:30pm 16.9 SE 13 21 1028.1 - 0.0 - - - - - - -
20/04:00pm 17.1 SE 11 18 1028.1 - 0.0 - - - - - - -
20/03:30pm 17.5 SE 12 22 1028.4 - 0.0 - - - - - - -
20/03:00pm 17.6 SE 10 17 1028.6 - 0.0 - - - - - - -
20/02:30pm 17.2 SE 11 18 1028.9 - 0.0 - - - - - - -
20/02:00pm 17.3 SE 10 16 1029.3 - 0.0 - - - - - - -
20/01:30pm 16.7 SE 10 16 1029.5 - 0.0 - - - - - - -

Other Formats:

Comma delimited format used in spreadsheet applications
http://www.bom.gov.au/fwo/IDV60701/IDV60701.94898.axf

JavaScript Object Notation format (JSON) in row-major order
http://www.bom.gov.au/fwo/IDV60701/IDV60701.94898.json